Time;durP1;ratioP1;P1;durP2;ratioP2;P2;SDS_P1;SDS_P2;PMS_P1;PMS_P2;Temp;Humidity;BMP_temperature;BMP_pressure;BME280_temperature;BME280_humidity;BME280_pressure;Samples;Min_cycle;Max_cycle;Signal;HPM_P1;HPM_P2
2023/01/04 00:00:08;;;;;;;39.67;23.55;;;;;;;;;;4943014;29;20055;-94
2023/01/04 00:02:34;;;;;;;36.47;23.90;;;;;;;;;;4942663;29;20363;-94
2023/01/04 00:05:01;;;;;;;37.42;23.40;;;;;;;;;;4943061;29;20051;-95
2023/01/04 00:07:28;;;;;;;37.20;24.60;;;;;;;;;;4941728;29;20111;-95
2023/01/04 00:09:55;;;;;;;35.53;23.70;;;;;;;;;;4942617;29;20055;-94
2023/01/04 00:12:21;;;;;;;36.45;23.55;;;;;;;;;;4943015;29;20086;-94
2023/01/04 00:14:48;;;;;;;37.47;23.05;;;;;;;;;;4941960;29;20379;-94
2023/01/04 00:17:14;;;;;;;38.67;23.52;;;;;;;;;;4942584;29;20028;-94
2023/01/04 00:19:43;;;;;;;33.60;22.40;;;;;;;;;;4942825;29;20035;-96
2023/01/04 00:22:09;;;;;;;35.20;23.15;;;;;;;;;;4941942;29;20028;-96
2023/01/04 00:24:35;;;;;;;36.72;23.13;;;;;;;;;;4942662;29;20442;-94
2023/01/04 00:27:01;;;;;;;37.95;25.70;;;;;;;;;;4941786;29;20061;-96
2023/01/04 00:29:27;;;;;;;31.83;22.05;;;;;;;;;;4942768;29;20047;-94
2023/01/04 00:35:16;;;;;;;32.47;21.95;;;;;;;;;;4944892;29;20315;-96
2023/01/04 00:37:42;;;;;;;30.85;21.73;;;;;;;;;;4943377;29;20029;-95
2023/01/04 00:40:08;;;;;;;33.75;21.05;;;;;;;;;;4942883;29;20024;-96
2023/01/04 00:42:42;;;;;;;31.95;22.02;;;;;;;;;;4943806;29;20433;-95
2023/01/04 00:48:20;;;;;;;35.40;23.08;;;;;;;;;;4959652;29;20071;-96
2023/01/04 00:50:47;;;;;;;33.75;22.13;;;;;;;;;;4941242;29;20023;-96
2023/01/04 00:53:14;;;;;;;29.65;20.40;;;;;;;;;;4941689;29;20036;-96
2023/01/04 00:55:40;;;;;;;31.10;22.00;;;;;;;;;;4958527;29;20091;-95
2023/01/04 00:58:07;;;;;;;32.67;22.15;;;;;;;;;;4941672;29;20028;-96
2023/01/04 01:01:00;;;;;;;32.97;22.05;;;;;;;;;;4941454;29;20035;-95
2023/01/04 01:03:27;;;;;;;35.22;23.25;;;;;;;;;;4958098;29;20031;-96
2023/01/04 01:05:53;;;;;;;35.67;22.58;;;;;;;;;;4960733;28;20035;-94
2023/01/04 01:08:25;;;;;;;31.80;22.17;;;;;;;;;;4960383;28;20482;-95
2023/01/04 01:10:59;;;;;;;33.90;25.13;;;;;;;;;;4959805;28;20055;-93
2023/01/04 01:13:26;;;;;;;36.00;23.33;;;;;;;;;;4960549;28;20062;-92
2023/01/04 01:18:55;;;;;;;33.75;22.02;;;;;;;;;;4959196;29;20030;-92
2023/01/04 01:21:23;;;;;;;36.42;22.92;;;;;;;;;;4941647;29;20319;-93
2023/01/04 01:23:49;;;;;;;34.22;24.38;;;;;;;;;;4941492;29;20074;-91
2023/01/04 01:26:17;;;;;;;33.00;22.83;;;;;;;;;;4959140;28;20134;-91
2023/01/04 01:28:43;;;;;;;35.92;22.52;;;;;;;;;;4958864;28;20019;-93
2023/01/04 01:31:46;;;;;;;36.03;25.17;;;;;;;;;;4960490;28;20027;-91
2023/01/04 01:34:12;;;;;;;34.85;24.77;;;;;;;;;;4944807;28;20031;-93
2023/01/04 01:36:38;;;;;;;39.35;25.65;;;;;;;;;;4960105;28;20035;-92
2023/01/04 01:39:07;;;;;;;40.78;27.38;;;;;;;;;;4959339;28;20027;-91
2023/01/04 01:41:36;;;;;;;45.42;30.05;;;;;;;;;;4959693;28;20019;-93
2023/01/04 01:44:06;;;;;;;34.60;22.77;;;;;;;;;;4951232;28;20040;-92
2023/01/04 01:49:37;;;;;;;31.85;21.42;;;;;;;;;;4941025;29;20066;-94
2023/01/04 01:52:06;;;;;;;32.78;21.27;;;;;;;;;;4941007;29;20026;-95
2023/01/04 01:54:39;;;;;;;34.67;22.52;;;;;;;;;;4953184;29;20032;-96
2023/01/04 01:57:06;;;;;;;28.00;20.35;;;;;;;;;;4944685;28;20064;-95
2023/01/04 01:59:34;;;;;;;32.25;20.15;;;;;;;;;;4960192;28;20027;-95
2023/01/04 02:08:08;;;;;;;28.65;19.45;;;;;;;;;;4940954;29;20196;-96
2023/01/04 02:10:36;;;;;;;29.15;19.80;;;;;;;;;;4945278;29;20023;-96
2023/01/04 02:13:05;;;;;;;27.80;20.05;;;;;;;;;;4960186;28;20019;-95
2023/01/04 02:21:36;;;;;;;28.02;17.85;;;;;;;;;;4940344;29;20441;-94
2023/01/04 02:24:20;;;;;;;24.15;18.25;;;;;;;;;;4940409;29;20023;-94
2023/01/04 02:26:56;;;;;;;26.25;18.52;;;;;;;;;;4939771;29;20046;-94
2023/01/04 02:29:22;;;;;;;24.25;17.92;;;;;;;;;;4939700;29;20085;-94
2023/01/04 02:38:07;;;;;;;23.33;17.27;;;;;;;;;;4930798;29;20027;-96
2023/01/04 02:40:41;;;;;;;22.52;17.33;;;;;;;;;;4933993;29;20031;-95
2023/01/04 02:46:46;;;;;;;25.17;18.52;;;;;;;;;;4889868;29;20077;-94
2023/01/04 02:51:56;;;;;;;27.20;18.73;;;;;;;;;;4900999;29;20031;-95
2023/01/04 02:54:33;;;;;;;24.52;18.85;;;;;;;;;;4890092;29;20468;-94
2023/01/04 02:57:11;;;;;;;25.70;19.13;;;;;;;;;;4882316;29;20037;-94
2023/01/04 02:59:40;;;;;;;28.02;20.58;;;;;;;;;;4886532;29;20032;-95
2023/01/04 03:08:24;;;;;;;31.55;21.38;;;;;;;;;;4882292;29;20333;-96
2023/01/04 03:14:00;;;;;;;28.73;20.88;;;;;;;;;;4887595;29;20032;-94
2023/01/04 03:16:29;;;;;;;30.30;20.77;;;;;;;;;;4881389;29;20068;-94
2023/01/04 03:19:03;;;;;;;30.42;20.67;;;;;;;;;;4881968;29;20041;-95
2023/01/04 03:21:32;;;;;;;29.45;19.75;;;;;;;;;;4881840;29;20082;-94
2023/01/04 03:50:26;;;;;;;30.05;21.27;;;;;;;;;;4920249;29;20086;-94
2023/01/04 03:52:53;;;;;;;30.48;21.38;;;;;;;;;;4922473;29;20048;-95
2023/01/04 03:55:20;;;;;;;30.10;20.48;;;;;;;;;;4922319;29;20308;-95
2023/01/04 03:57:47;;;;;;;30.75;20.60;;;;;;;;;;4922244;29;20032;-94
2023/01/04 04:00:15;;;;;;;30.08;21.92;;;;;;;;;;4916147;29;20040;-94
2023/01/04 04:02:44;;;;;;;31.55;21.42;;;;;;;;;;4922228;29;20036;-95
2023/01/04 04:11:28;;;;;;;29.88;21.30;;;;;;;;;;4922665;29;20039;-96
2023/01/04 04:13:49;;;;;;;31.30;21.27;;;;;;;;;;4920122;29;20056;-95
2023/01/04 04:19:27;;;;;;;31.10;21.20;;;;;;;;;;4923079;29;19954;-94
2023/01/04 04:22:05;;;;;;;34.25;23.13;;;;;;;;;;4922452;29;20076;-94
2023/01/04 04:24:38;;;;;;;31.85;22.00;;;;;;;;;;4923589;29;20063;-93
2023/01/04 04:27:04;;;;;;;32.08;22.30;;;;;;;;;;4931309;29;20051;-92
2023/01/04 04:29:31;;;;;;;31.00;21.70;;;;;;;;;;4941662;29;20035;-92
2023/01/04 04:32:15;;;;;;;33.72;23.23;;;;;;;;;;4942254;29;20403;-94
2023/01/04 04:34:41;;;;;;;45.30;25.75;;;;;;;;;;4942501;29;20043;-92
2023/01/04 04:37:07;;;;;;;37.58;23.88;;;;;;;;;;4942322;29;20035;-91
2023/01/04 04:39:36;;;;;;;32.63;22.38;;;;;;;;;;4938586;29;20031;-94
2023/01/04 04:42:04;;;;;;;30.13;21.02;;;;;;;;;;4942142;29;20031;-96
2023/01/04 04:44:33;;;;;;;29.73;20.63;;;;;;;;;;4941959;29;20067;-94
2023/01/04 04:50:03;;;;;;;35.22;23.40;;;;;;;;;;4942287;29;20035;-94
2023/01/04 04:52:29;;;;;;;31.65;21.50;;;;;;;;;;4942365;29;20024;-94
2023/01/04 04:55:05;;;;;;;31.45;21.70;;;;;;;;;;4941661;29;20035;-94
2023/01/04 04:57:31;;;;;;;32.25;21.67;;;;;;;;;;4941858;29;20032;-94
2023/01/04 04:59:57;;;;;;;33.63;21.73;;;;;;;;;;4940947;29;20062;-95
2023/01/04 05:05:47;;;;;;;41.53;25.38;;;;;;;;;;4942022;29;20078;-94
2023/01/04 05:08:13;;;;;;;35.92;24.67;;;;;;;;;;4941963;29;20033;-96
2023/01/04 05:10:40;;;;;;;36.08;24.73;;;;;;;;;;4941971;29;20024;-95
2023/01/04 05:13:27;;;;;;;35.65;23.92;;;;;;;;;;4941745;29;20023;-96
2023/01/04 05:15:54;;;;;;;36.17;23.77;;;;;;;;;;4941334;29;20044;-94
2023/01/04 05:18:21;;;;;;;33.63;22.48;;;;;;;;;;4941390;29;20062;-95
2023/01/04 05:20:50;;;;;;;36.58;23.25;;;;;;;;;;4940961;29;20383;-94
2023/01/04 05:23:20;;;;;;;35.88;24.02;;;;;;;;;;4940681;29;20028;-95
2023/01/04 05:25:53;;;;;;;37.08;25.23;;;;;;;;;;4941703;29;20063;-95
2023/01/04 05:28:22;;;;;;;36.22;24.17;;;;;;;;;;4940846;29;20027;-94
2023/01/04 05:30:54;;;;;;;36.47;23.60;;;;;;;;;;4941446;29;20038;-95
2023/01/04 05:36:05;;;;;;;70.25;43.20;;;;;;;;;;4941121;29;19933;-95
2023/01/04 05:38:34;;;;;;;61.95;37.13;;;;;;;;;;4940355;29;20115;-94
2023/01/04 05:42:24;;;;;;;49.70;30.60;;;;;;;;;;4941512;29;20024;-94
2023/01/04 05:43:56;;;;;;;44.15;28.80;;;;;;;;;;4941167;29;20107;-94
2023/01/04 05:46:29;;;;;;;58.03;35.10;;;;;;;;;;4940806;29;20027;-94
2023/01/04 05:49:03;;;;;;;59.67;36.53;;;;;;;;;;4940058;29;20075;-95
2023/01/04 05:51:31;;;;;;;66.75;38.60;;;;;;;;;;4940028;29;20506;-95
2023/01/04 05:53:59;;;;;;;71.60;40.25;;;;;;;;;;4940889;29;20027;-94
2023/01/04 05:56:25;;;;;;;69.07;39.70;;;;;;;;;;4941102;29;20082;-95
2023/01/04 05:58:52;;;;;;;62.88;37.40;;;;;;;;;;4941212;29;20040;-95
2023/01/04 06:01:18;;;;;;;67.65;38.97;;;;;;;;;;4940814;29;20115;-94
2023/01/04 06:03:44;;;;;;;84.65;42.60;;;;;;;;;;4941003;29;20402;-95
2023/01/04 06:06:10;;;;;;;77.35;36.25;;;;;;;;;;4939772;29;20028;-96
2023/01/04 06:08:36;;;;;;;89.60;36.53;;;;;;;;;;4939632;29;20307;-94
2023/01/04 06:11:02;;;;;;;93.22;39.22;;;;;;;;;;4941144;29;20036;-94
2023/01/04 06:13:29;;;;;;;66.45;31.77;;;;;;;;;;4939987;29;20024;-96
2023/01/04 06:15:55;;;;;;;87.20;36.65;;;;;;;;;;4940634;29;20348;-96
2023/01/04 06:18:36;;;;;;;81.72;40.10;;;;;;;;;;4939629;29;20038;-95
2023/01/04 06:21:02;;;;;;;92.97;42.75;;;;;;;;;;4940093;29;20036;-95
2023/01/04 06:23:30;;;;;;;80.88;41.42;;;;;;;;;;4940756;29;20071;-95
2023/01/04 06:25:57;;;;;;;72.55;39.22;;;;;;;;;;4940341;29;20060;-95
2023/01/04 06:28:23;;;;;;;66.05;38.22;;;;;;;;;;4940791;29;20291;-95
2023/01/04 06:30:49;;;;;;;68.53;39.58;;;;;;;;;;4939455;29;20035;-96
2023/01/04 06:33:15;;;;;;;57.03;33.22;;;;;;;;;;4939466;29;20023;-96
2023/01/04 06:35:41;;;;;;;45.45;28.52;;;;;;;;;;4940586;29;20039;-96
2023/01/04 06:38:10;;;;;;;49.50;31.15;;;;;;;;;;4940434;29;20083;-95
2023/01/04 06:40:36;;;;;;;45.88;30.00;;;;;;;;;;4939543;29;20127;-95
2023/01/04 06:43:02;;;;;;;48.40;30.50;;;;;;;;;;4940215;29;20028;-96
2023/01/04 06:45:28;;;;;;;59.92;32.47;;;;;;;;;;4939285;29;20031;-96
2023/01/04 06:51:03;;;;;;;56.83;32.78;;;;;;;;;;4940388;29;20026;-95
2023/01/04 06:53:39;;;;;;;51.08;31.02;;;;;;;;;;4940255;29;20409;-95
2023/01/04 06:56:06;;;;;;;58.67;33.47;;;;;;;;;;4940068;29;20114;-95
2023/01/04 06:58:33;;;;;;;70.03;37.03;;;;;;;;;;4940509;29;20055;-96
2023/01/04 07:00:59;;;;;;;62.25;36.35;;;;;;;;;;4940435;29;20027;-94
2023/01/04 07:03:27;;;;;;;53.03;31.75;;;;;;;;;;4940863;29;20410;-96
2023/01/04 07:06:06;;;;;;;;;;;;;;;;;;;;;
2023/01/04 07:08:36;;;;;;;66.15;39.03;;;;;;;;;;4939599;29;20427;-96
2023/01/04 07:11:07;;;;;;;69.15;36.75;;;;;;;;;;4941967;29;20032;-96
2023/01/04 07:13:36;;;;;;;70.95;37.53;;;;;;;;;;4940835;29;20046;-95
2023/01/04 07:16:07;;;;;;;78.95;39.67;;;;;;;;;;4939956;29;20043;-95
2023/01/04 07:18:50;;;;;;;75.25;38.70;;;;;;;;;;4939149;29;20060;-94
2023/01/04 07:21:28;;;;;;;65.95;35.53;;;;;;;;;;4939057;29;20032;-94
2023/01/04 07:24:00;;;;;;;57.50;31.95;;;;;;;;;;4940183;29;20031;-96
2023/01/04 07:26:28;;;;;;;52.00;29.17;;;;;;;;;;4943916;29;20055;-94
2023/01/04 07:31:39;;;;;;;44.40;26.35;;;;;;;;;;4943935;29;20083;-96
2023/01/04 07:34:07;;;;;;;37.20;23.48;;;;;;;;;;4943149;29;20430;-94
2023/01/04 07:36:48;;;;;;;35.03;23.85;;;;;;;;;;4944205;29;20027;-95
2023/01/04 07:39:21;;;;;;;38.40;25.40;;;;;;;;;;4944002;29;20031;-96
2023/01/04 07:41:56;;;;;;;37.45;25.95;;;;;;;;;;4943017;29;20494;-95
2023/01/04 07:44:24;;;;;;;43.78;27.38;;;;;;;;;;4942705;29;20319;-96
2023/01/04 07:46:50;;;;;;;48.53;29.90;;;;;;;;;;4943710;29;20031;-95
2023/01/04 07:49:47;;;;;;;;;;;;;;;;;;;;;
2023/01/04 07:52:28;;;;;;;;;;;;;;;;;;;;;
2023/01/04 07:55:29;;;;;;;47.38;26.80;;;;;;;;;;4943158;29;20046;-96
2023/01/04 07:58:08;;;;;;;63.17;31.05;;;;;;;;;;4943591;29;20038;-94
2023/01/04 08:00:38;;;;;;;71.28;35.25;;;;;;;;;;4943046;29;20052;-95
2023/01/04 08:06:12;;;;;;;79.68;43.67;;;;;;;;;;4943055;29;20465;-95
2023/01/04 08:09:02;;;;;;;98.82;49.38;;;;;;;;;;4948194;29;20035;-96
2023/01/04 08:15:29;;;;;;;69.57;35.40;;;;;;;;;;4945061;29;20119;-95
2023/01/04 08:18:47;;;;;;;;;;;;;;;;;;;;;
2023/01/04 08:49:56;;;;;;;;;;;;;;;;;;4979577;28;20097;-95
2023/01/04 08:52:23;;;;;;;26.13;17.08;;;;;;;;;;4980702;28;19957;-96
2023/01/04 08:54:54;;;;;;;28.30;17.17;;;;;;;;;;4979698;28;20070;-95
2023/01/04 08:57:20;;;;;;;23.88;15.63;;;;;;;;;;4981982;28;20027;-96
2023/01/04 08:59:47;;;;;;;32.58;18.50;;;;;;;;;;4982185;28;20070;-95
2023/01/04 09:02:20;;;;;;;25.73;15.05;;;;;;;;;;4981125;28;20025;-95
2023/01/04 09:04:47;;;;;;;27.42;14.95;;;;;;;;;;4981044;28;20473;-95
2023/01/04 09:07:37;;;;;;;25.77;15.13;;;;;;;;;;4981829;28;20062;-95
2023/01/04 09:10:09;;;;;;;32.85;17.35;;;;;;;;;;4984994;28;20029;-95
2023/01/04 09:12:53;;;;;;;27.25;15.48;;;;;;;;;;4981666;28;20050;-96
2023/01/04 09:15:25;;;;;;;40.15;18.95;;;;;;;;;;4980314;28;20035;-95
2023/01/04 09:21:03;;;;;;;23.88;13.32;;;;;;;;;;4983226;28;20034;-96
2023/01/04 09:23:32;;;;;;;23.98;14.15;;;;;;;;;;4981113;28;20037;-96
2023/01/04 09:26:25;;;;;;;19.58;12.68;;;;;;;;;;4981106;28;20034;-95
2023/01/04 09:28:57;;;;;;;24.13;14.18;;;;;;;;;;4940631;29;20083;-96
2023/01/04 09:31:54;;;;;;;;;;;;;;;;;;;;;
2023/01/04 09:34:25;;;;;;;21.80;13.52;;;;;;;;;;4937740;29;20036;-95
2023/01/04 09:37:05;;;;;;;27.38;15.88;;;;;;;;;;4930262;29;20107;-96
2023/01/04 09:39:33;;;;;;;24.95;15.15;;;;;;;;;;4925794;29;20032;-95
2023/01/04 09:42:18;;;;;;;20.10;13.63;;;;;;;;;;4925258;29;20071;-96
2023/01/04 09:55:10;;;;;;;18.88;12.48;;;;;;;;;;4883734;29;20055;-96
2023/01/04 09:57:49;;;;;;;23.17;12.95;;;;;;;;;;4868054;29;20458;-94
2023/01/04 10:00:32;;;;;;;26.10;15.13;;;;;;;;;;4884441;29;20045;-96
2023/01/04 10:06:38;;;;;;;19.85;12.02;;;;;;;;;;4896373;29;20071;-96
2023/01/04 10:09:35;;;;;;;17.42;11.40;;;;;;;;;;4902094;29;20025;-96
2023/01/04 10:12:20;;;;;;;;;;;;;;;;;;;;;
2023/01/04 10:21:44;;;;;;;;;;;;;;;;;;;;;
2023/01/04 10:28:04;;;;;;;;;;;;;;;;;;;;;
2023/01/04 10:31:12;;;;;;;;;;;;;;;;;;;;;
2023/01/04 10:34:15;;;;;;;;;;;;;;;;;;;;;
2023/01/04 10:37:02;;;;;;;;;;;;;;;;;;4756497;30;20036;-96
2023/01/04 10:39:34;;;;;;;19.27;12.15;;;;;;;;;;4755662;30;20397;-96
2023/01/04 10:58:24;;;;;;;17.20;11.60;;;;;;;;;;6205300;22;1460707;-95
2023/01/04 11:01:28;;;;;;;;;;;;;;;;;;;;;
2023/01/04 11:04:19;;;;;;;16.73;10.52;;;;;;;;;;6291201;22;20079;-92
2023/01/04 11:06:54;;;;;;;20.15;12.10;;;;;;;;;;6324147;22;20419;-92
2023/01/04 11:09:23;;;;;;;18.10;12.00;;;;;;;;;;6322319;22;20007;-90
2023/01/04 11:11:50;;;;;;;17.10;11.40;;;;;;;;;;6330576;22;20054;-90
2023/01/04 11:57:18;;;;;;;18.88;8.35;;;;;;;;;;6262217;22;20027;-92
2023/01/04 13:11:38;;;;;;;21.77;13.88;;;;;;;;;;6285900;22;20055;-95
2023/01/04 13:52:46;;;;;;;17.40;8.88;;;;;;;;;;6261712;22;20030;-96
2023/01/04 13:55:19;;;;;;;12.95;8.27;;;;;;;;;;6293283;22;20008;-96
2023/01/04 13:58:06;;;;;;;16.48;9.48;;;;;;;;;;6291251;22;20019;-96
2023/01/04 14:00:55;;;;;;;12.73;7.95;;;;;;;;;;6292312;22;20003;-96
2023/01/04 14:57:44;;;;;;;71.13;39.95;;;;;;;;;;6320545;22;20019;-96
2023/01/04 15:00:33;;;;;;;76.70;46.55;;;;;;;;;;6320871;22;20007;-96
2023/01/04 17:03:10;;;;;;;371.10;206.95;;;;;;;;;;6291800;22;20034;-95
2023/01/04 18:39:20;;;;;;;142.85;76.43;;;;;;;;;;6274014;22;21064;-94
2023/01/04 19:17:23;;;;;;;271.77;115.72;;;;;;;;;;6281264;22;20314;-94
2023/01/04 19:26:15;;;;;;;132.95;69.43;;;;;;;;;;6318446;22;20058;-94
2023/01/04 19:28:44;;;;;;;153.00;70.45;;;;;;;;;;6318431;22;20010;-94
2023/01/04 19:32:02;;;;;;;;;;;;;;;;;;;;;
2023/01/04 19:40:41;;;;;;;175.48;84.68;;;;;;;;;;6137618;23;20370;-94
2023/01/04 19:43:48;;;;;;;;;;;;;;;;;;;;;
2023/01/04 19:49:39;;;;;;;139.98;77.85;;;;;;;;;;6289859;22;20023;-95
2023/01/04 19:55:14;;;;;;;146.52;81.30;;;;;;;;;;6160453;23;20228;-93
2023/01/04 19:58:19;;;;;;;;;;;;;;;;;;;;;
2023/01/04 20:01:08;;;;;;;176.23;95.32;;;;;;;;;;6070128;23;20453;-94
2023/01/04 20:03:57;;;;;;;188.85;98.82;;;;;;;;;;6068505;23;20035;-94
2023/01/04 20:06:41;;;;;;;204.13;113.82;;;;;;;;;;6015727;23;20008;-93
2023/01/04 20:12:04;;;;;;;262.48;139.40;;;;;;;;;;6017997;23;20011;-93
2023/01/04 20:14:49;;;;;;;292.80;154.73;;;;;;;;;;5992608;23;20341;-95
2023/01/04 20:17:15;;;;;;;310.75;159.27;;;;;;;;;;6019644;23;20019;-95
2023/01/04 21:25:08;;;;;;;155.80;80.95;;;;;;;;;;6300378;22;20023;-96
2023/01/04 21:28:03;;;;;;;349.08;133.70;;;;;;;;;;6295516;22;20007;-96
2023/01/04 21:31:09;;;;;;;;;;;;;;;;;;;;;
2023/01/04 21:34:02;;;;;;;243.63;88.72;;;;;;;;;;6216766;23;20047;-96
2023/01/04 21:36:37;;;;;;;190.50;74.13;;;;;;;;;;6235683;22;20380;-96
2023/01/04 21:42:34;;;;;;;144.55;60.60;;;;;;;;;;6200594;23;20005;-95
2023/01/04 22:56:25;;;;;;;78.53;46.50;;;;;;;;;;6278684;22;20078;31
2023/01/04 22:58:52;;;;;;;84.60;47.88;;;;;;;;;;6227343;23;20208;-94
2023/01/04 23:01:19;;;;;;;82.13;50.53;;;;;;;;;;6254190;23;20000;-94
